Friday, October 19, 2018, 10:46 PM GMT
Back to Local

CYPQ, Peterborough Airport

Location: , , Canada Lat: 44.233
Local Time: 10:46 PM GMT (22:46 GMT) Lon: -78.367
Time Zone: GMT Elev: 626 ft

Show me the last for .
Show Coded

Time T Td Feel RH Dir Speed Gust Alt SLP Vis Weather Sky Remarks
2018-10-19 22:00 52 45 - 76 200° 12 20 29.76 29.77 9 BKN130 OVC150 Pressure falling rapidly
2018-10-19 21:00 54 46 - 76 200° 12 17 29.81 29.83 9 BKN160 BKN180 None
2018-10-19 20:00 55 46 - 71 200° 15 24 29.84 29.85 9 FEW150 BKN200 None
2018-10-19 19:00 59 39 - 47 230° 15 23 29.87 29.88 9 BKN170 OVC190 None
2018-10-19 18:00 57 39 - 50 230° 13 20 29.90 29.91 9 FEW200 BKN230 None
2018-10-19 17:00 57 39 - 50 220° 15 21 29.93 29.94 9 CLR Pressure falling rapidly
2018-10-19 16:00 52 37 - 57 190° 14 - 29.96 29.98 9 BKN230 None
2018-10-19 15:00 48 37 42 66 210° 12 17 29.99 30.01 9 SCT240 None
2018-10-19 14:00 48 37 44 66 220° 9 - 30.02 30.04 9 CLR None
2018-10-19 13:00 45 36 40 70 220° 9 - 30.05 30.07 9 CLR None
2018-10-19 12:00 39 34 34 80 210° 7 - 30.05 30.07 9 CLR None
2018-10-19 11:00 39 34 35 80 210° 6 - 30.06 30.09 9 CLR None
2018-10-19 10:00 37 32 34 80 200° 5 - 30.08 30.11 9 CLR None
2018-10-19 09:00 34 30 30 86 170° 5 - 30.10 30.12 9 CLR None
2018-10-19 08:00 39 30 36 69 200° 5 - 30.12 30.14 9 CLR None
2018-10-19 07:00 37 30 34 74 210° 5 - 30.13 30.15 9 CLR None
2018-10-19 06:00 39 28 36 64 230° 5 - 30.14 30.16 9 CLR None
2018-10-19 05:00 39 28 34 64 230° 7 - 30.15 30.18 9 CLR None
2018-10-19 04:00 37 28 33 69 220° 6 - 30.16 30.19 9 CLR None
2018-10-19 03:00 37 28 34 69 210° 5 - 30.18 30.21 9 CLR None
2018-10-19 02:00 36 28 30 74 200° 7 - 30.20 30.22 9 CLR None
2018-10-19 01:00 34 28 30 80 200° 5 - 30.23 30.26 9 CLR None
2018-10-19 00:00 32 28 29 86 220° 3 - 30.25 30.28 9 CLR None
2018-10-18 23:00 37 28 33 69 200° 6 - 30.26 30.29 9 CLR Pressure falling rapidly

Support USWX by starting your Amazon purchase here.